sensor_id;sensor_type;location;lat;lon;timestamp;pressure;altitude;pressure_sealevel;temperature;humidity
61345;BME280;47216;42.656;23.232;2023-11-21T00:02:25;93700.78;;;5.52;70.60
61345;BME280;47216;42.656;23.232;2023-11-21T00:04:52;93699.34;;;5.56;70.96
61345;BME280;47216;42.656;23.232;2023-11-21T00:07:20;93690.13;;;5.60;70.92
61345;BME280;47216;42.656;23.232;2023-11-21T00:09:47;93694.84;;;5.63;70.81
61345;BME280;47216;42.656;23.232;2023-11-21T00:12:14;93703.19;;;5.65;70.40
61345;BME280;47216;42.656;23.232;2023-11-21T00:14:41;93698.81;;;5.65;70.79
61345;BME280;47216;42.656;23.232;2023-11-21T00:17:08;93697.16;;;5.71;70.62
61345;BME280;47216;42.656;23.232;2023-11-21T00:19:35;93698.25;;;5.75;70.89
61345;BME280;47216;42.656;23.232;2023-11-21T00:22:02;93706.75;;;5.82;70.82
61345;BME280;47216;42.656;23.232;2023-11-21T00:24:30;93701.44;;;5.89;70.25
61345;BME280;47216;42.656;23.232;2023-11-21T00:26:57;93699.09;;;5.87;69.70
61345;BME280;47216;42.656;23.232;2023-11-21T00:29:23;93703.25;;;5.88;69.75
61345;BME280;47216;42.656;23.232;2023-11-21T00:31:50;93693.34;;;5.85;70.12
61345;BME280;47216;42.656;23.232;2023-11-21T00:34:16;93693.81;;;5.82;69.67
61345;BME280;47216;42.656;23.232;2023-11-21T00:36:43;93690.97;;;5.84;69.94
61345;BME280;47216;42.656;23.232;2023-11-21T00:39:10;93694.59;;;5.83;69.96
61345;BME280;47216;42.656;23.232;2023-11-21T00:41:38;93691.22;;;5.82;69.94
61345;BME280;47216;42.656;23.232;2023-11-21T00:44:05;93703.81;;;5.90;69.71
61345;BME280;47216;42.656;23.232;2023-11-21T00:46:32;93697.97;;;5.83;69.31
61345;BME280;47216;42.656;23.232;2023-11-21T00:48:59;93701.00;;;5.80;69.56
61345;BME280;47216;42.656;23.232;2023-11-21T00:51:26;93702.09;;;5.73;69.53
61345;BME280;47216;42.656;23.232;2023-11-21T00:53:52;93695.06;;;5.61;70.26
61345;BME280;47216;42.656;23.232;2023-11-21T00:56:19;93694.63;;;5.53;70.52
61345;BME280;47216;42.656;23.232;2023-11-21T00:58:47;93681.44;;;5.54;70.66
61345;BME280;47216;42.656;23.232;2023-11-21T01:01:15;93688.41;;;5.54;70.92
61345;BME280;47216;42.656;23.232;2023-11-21T01:03:42;93680.53;;;5.48;70.65
61345;BME280;47216;42.656;23.232;2023-11-21T01:06:09;93674.34;;;5.50;70.96
61345;BME280;47216;42.656;23.232;2023-11-21T01:08:36;93669.63;;;5.46;71.21
61345;BME280;47216;42.656;23.232;2023-11-21T01:11:03;93659.28;;;5.46;71.49
61345;BME280;47216;42.656;23.232;2023-11-21T01:13:30;93670.81;;;5.62;70.42
61345;BME280;47216;42.656;23.232;2023-11-21T01:15:58;93672.94;;;5.65;70.68
61345;BME280;47216;42.656;23.232;2023-11-21T01:18:25;93664.88;;;5.74;70.50
61345;BME280;47216;42.656;23.232;2023-11-21T01:20:52;93675.56;;;5.77;69.98
61345;BME280;47216;42.656;23.232;2023-11-21T01:23:19;93677.16;;;5.78;70.10
61345;BME280;47216;42.656;23.232;2023-11-21T01:25:46;93679.72;;;5.78;69.80
61345;BME280;47216;42.656;23.232;2023-11-21T01:28:13;93681.97;;;5.75;69.12
61345;BME280;47216;42.656;23.232;2023-11-21T01:30:39;93677.44;;;5.70;69.50
61345;BME280;47216;42.656;23.232;2023-11-21T01:33:08;93677.31;;;5.65;68.98
61345;BME280;47216;42.656;23.232;2023-11-21T01:35:34;93668.66;;;5.59;69.04
61345;BME280;47216;42.656;23.232;2023-11-21T01:38:01;93676.50;;;5.53;69.22
61345;BME280;47216;42.656;23.232;2023-11-21T01:40:29;93682.69;;;5.52;69.98
61345;BME280;47216;42.656;23.232;2023-11-21T01:42:56;93683.81;;;5.56;69.73
61345;BME280;47216;42.656;23.232;2023-11-21T01:45:22;93683.72;;;5.62;69.27
61345;BME280;47216;42.656;23.232;2023-11-21T01:47:50;93678.09;;;5.65;69.07
61345;BME280;47216;42.656;23.232;2023-11-21T01:50:19;93666.28;;;5.58;68.68
61345;BME280;47216;42.656;23.232;2023-11-21T01:52:47;93657.28;;;5.48;69.29
61345;BME280;47216;42.656;23.232;2023-11-21T01:55:16;93666.91;;;5.41;69.21
61345;BME280;47216;42.656;23.232;2023-11-21T01:57:45;93677.41;;;5.28;69.37
61345;BME280;47216;42.656;23.232;2023-11-21T02:00:13;93677.53;;;5.33;69.14
61345;BME280;47216;42.656;23.232;2023-11-21T02:02:42;93671.59;;;5.33;69.22
61345;BME280;47216;42.656;23.232;2023-11-21T02:05:10;93682.72;;;5.33;69.59
61345;BME280;47216;42.656;23.232;2023-11-21T02:07:39;93680.00;;;5.28;69.48
61345;BME280;47216;42.656;23.232;2023-11-21T02:10:06;93685.03;;;5.23;69.57
61345;BME280;47216;42.656;23.232;2023-11-21T02:12:34;93681.97;;;5.14;70.11
61345;BME280;47216;42.656;23.232;2023-11-21T02:15:02;93678.81;;;5.12;69.84
61345;BME280;47216;42.656;23.232;2023-11-21T02:17:30;93680.16;;;5.15;69.75
61345;BME280;47216;42.656;23.232;2023-11-21T02:19:58;93674.16;;;5.02;70.15
61345;BME280;47216;42.656;23.232;2023-11-21T02:22:26;93665.91;;;4.94;70.29
61345;BME280;47216;42.656;23.232;2023-11-21T02:24:57;93668.56;;;4.87;70.57
61345;BME280;47216;42.656;23.232;2023-11-21T02:27:24;93672.03;;;4.81;70.80
61345;BME280;47216;42.656;23.232;2023-11-21T02:29:52;93665.25;;;4.80;71.11
61345;BME280;47216;42.656;23.232;2023-11-21T02:32:19;93666.41;;;4.84;71.45
61345;BME280;47216;42.656;23.232;2023-11-21T02:34:48;93667.44;;;4.83;71.05
61345;BME280;47216;42.656;23.232;2023-11-21T02:37:15;93666.84;;;4.81;71.07
61345;BME280;47216;42.656;23.232;2023-11-21T02:39:42;93675.19;;;4.83;70.89
61345;BME280;47216;42.656;23.232;2023-11-21T02:42:10;93675.19;;;4.83;70.76
61345;BME280;47216;42.656;23.232;2023-11-21T02:44:37;93671.59;;;4.84;71.12
61345;BME280;47216;42.656;23.232;2023-11-21T02:47:04;93675.59;;;4.80;70.29
61345;BME280;47216;42.656;23.232;2023-11-21T02:49:31;93671.31;;;4.74;71.22
61345;BME280;47216;42.656;23.232;2023-11-21T02:52:00;93669.38;;;4.69;71.28
61345;BME280;47216;42.656;23.232;2023-11-21T02:54:26;93673.16;;;4.67;70.83
61345;BME280;47216;42.656;23.232;2023-11-21T02:56:53;93666.63;;;4.64;71.25
61345;BME280;47216;42.656;23.232;2023-11-21T02:59:21;93667.25;;;4.59;71.28
61345;BME280;47216;42.656;23.232;2023-11-21T03:01:48;93657.81;;;4.53;70.97
61345;BME280;47216;42.656;23.232;2023-11-21T03:04:15;93661.81;;;4.49;71.50
61345;BME280;47216;42.656;23.232;2023-11-21T03:06:43;93667.25;;;4.41;71.98
61345;BME280;47216;42.656;23.232;2023-11-21T03:09:10;93658.78;;;4.34;72.51
61345;BME280;47216;42.656;23.232;2023-11-21T03:11:38;93669.41;;;4.26;72.54
61345;BME280;47216;42.656;23.232;2023-11-21T03:14:05;93659.91;;;4.19;73.14
61345;BME280;47216;42.656;23.232;2023-11-21T03:16:33;93669.22;;;4.20;73.18
61345;BME280;47216;42.656;23.232;2023-11-21T03:19:00;93671.97;;;4.26;72.37
61345;BME280;47216;42.656;23.232;2023-11-21T03:21:27;93678.56;;;4.21;72.72
61345;BME280;47216;42.656;23.232;2023-11-21T03:23:54;93679.91;;;4.24;72.90
61345;BME280;47216;42.656;23.232;2023-11-21T03:26:21;93681.13;;;4.21;72.71
61345;BME280;47216;42.656;23.232;2023-11-21T03:28:48;93681.88;;;4.29;73.69
61345;BME280;47216;42.656;23.232;2023-11-21T03:31:15;93683.16;;;4.38;73.10
61345;BME280;47216;42.656;23.232;2023-11-21T03:33:45;93677.00;;;4.39;73.31
61345;BME280;47216;42.656;23.232;2023-11-21T03:36:12;93678.00;;;4.38;72.65
61345;BME280;47216;42.656;23.232;2023-11-21T03:38:40;93674.41;;;4.39;73.81
61345;BME280;47216;42.656;23.232;2023-11-21T03:41:07;93670.06;;;4.39;73.03
61345;BME280;47216;42.656;23.232;2023-11-21T03:43:35;93658.09;;;4.45;72.62
61345;BME280;47216;42.656;23.232;2023-11-21T03:46:02;93651.13;;;4.46;72.55
61345;BME280;47216;42.656;23.232;2023-11-21T03:48:29;93645.75;;;4.47;72.89
61345;BME280;47216;42.656;23.232;2023-11-21T03:50:57;93639.03;;;4.46;73.03
61345;BME280;47216;42.656;23.232;2023-11-21T03:53:24;93640.22;;;4.43;72.76
61345;BME280;47216;42.656;23.232;2023-11-21T03:55:51;93642.16;;;4.48;72.92
61345;BME280;47216;42.656;23.232;2023-11-21T03:58:17;93647.69;;;4.52;73.08
61345;BME280;47216;42.656;23.232;2023-11-21T04:00:44;93648.63;;;4.57;72.32
61345;BME280;47216;42.656;23.232;2023-11-21T04:03:11;93638.22;;;4.64;72.26
61345;BME280;47216;42.656;23.232;2023-11-21T04:05:39;93645.50;;;4.74;72.42
61345;BME280;47216;42.656;23.232;2023-11-21T04:08:07;93641.03;;;4.81;72.08
61345;BME280;47216;42.656;23.232;2023-11-21T04:10:34;93649.34;;;4.83;72.31
61345;BME280;47216;42.656;23.232;2023-11-21T04:13:01;93645.03;;;4.77;71.48
61345;BME280;47216;42.656;23.232;2023-11-21T04:15:28;93641.75;;;4.70;71.33
61345;BME280;47216;42.656;23.232;2023-11-21T04:17:54;93633.22;;;4.69;72.29
61345;BME280;47216;42.656;23.232;2023-11-21T04:20:22;93637.44;;;4.63;72.57
61345;BME280;47216;42.656;23.232;2023-11-21T04:22:49;93635.00;;;4.69;72.36
61345;BME280;47216;42.656;23.232;2023-11-21T04:25:17;93638.78;;;4.66;72.34
61345;BME280;47216;42.656;23.232;2023-11-21T04:27:44;93641.03;;;4.62;71.54
61345;BME280;47216;42.656;23.232;2023-11-21T04:30:12;93645.63;;;4.60;72.30
61345;BME280;47216;42.656;23.232;2023-11-21T04:32:39;93645.63;;;4.60;72.27
61345;BME280;47216;42.656;23.232;2023-11-21T04:35:08;93651.94;;;4.65;72.21
61345;BME280;47216;42.656;23.232;2023-11-21T04:37:35;93646.34;;;4.68;71.34
61345;BME280;47216;42.656;23.232;2023-11-21T04:40:02;93642.59;;;4.63;71.55
61345;BME280;47216;42.656;23.232;2023-11-21T04:42:34;93640.66;;;4.59;71.80
61345;BME280;47216;42.656;23.232;2023-11-21T04:45:01;93644.59;;;4.61;72.22
61345;BME280;47216;42.656;23.232;2023-11-21T04:47:30;93651.38;;;4.62;72.09
61345;BME280;47216;42.656;23.232;2023-11-21T04:49:57;93653.38;;;4.60;71.90
61345;BME280;47216;42.656;23.232;2023-11-21T04:52:24;93652.00;;;4.58;72.02
61345;BME280;47216;42.656;23.232;2023-11-21T04:54:50;93655.06;;;4.67;71.72
61345;BME280;47216;42.656;23.232;2023-11-21T04:57:16;93656.66;;;4.68;71.52
61345;BME280;47216;42.656;23.232;2023-11-21T04:59:45;93645.97;;;4.64;71.53
61345;BME280;47216;42.656;23.232;2023-11-21T05:02:12;93657.00;;;4.53;71.91
61345;BME280;47216;42.656;23.232;2023-11-21T05:04:39;93657.81;;;4.53;72.44
61345;BME280;47216;42.656;23.232;2023-11-21T05:07:08;93649.78;;;4.61;72.19
61345;BME280;47216;42.656;23.232;2023-11-21T05:09:35;93649.13;;;4.66;71.97
61345;BME280;47216;42.656;23.232;2023-11-21T05:12:03;93643.88;;;4.73;72.36
61345;BME280;47216;42.656;23.232;2023-11-21T05:14:30;93646.47;;;4.73;71.29
61345;BME280;47216;42.656;23.232;2023-11-21T05:16:58;93642.59;;;4.63;71.60
61345;BME280;47216;42.656;23.232;2023-11-21T05:19:25;93645.69;;;4.54;72.74
61345;BME280;47216;42.656;23.232;2023-11-21T05:21:52;93642.91;;;4.55;72.06
61345;BME280;47216;42.656;23.232;2023-11-21T05:24:19;93640.59;;;4.47;72.38
61345;BME280;47216;42.656;23.232;2023-11-21T05:26:46;93644.31;;;4.51;72.75
61345;BME280;47216;42.656;23.232;2023-11-21T05:29:12;93652.06;;;4.51;73.00
61345;BME280;47216;42.656;23.232;2023-11-21T05:31:39;93652.22;;;4.56;73.16
61345;BME280;47216;42.656;23.232;2023-11-21T05:34:07;93655.16;;;4.60;73.32
61345;BME280;47216;42.656;23.232;2023-11-21T05:36:34;93661.69;;;4.62;73.69
61345;BME280;47216;42.656;23.232;2023-11-21T05:39:01;93663.25;;;4.63;73.74
61345;BME280;47216;42.656;23.232;2023-11-21T05:41:29;93659.69;;;4.65;74.27
61345;BME280;47216;42.656;23.232;2023-11-21T05:43:56;93651.94;;;4.65;74.02
61345;BME280;47216;42.656;23.232;2023-11-21T05:46:22;93661.91;;;4.61;74.42
61345;BME280;47216;42.656;23.232;2023-11-21T05:48:49;93648.78;;;4.62;74.16
61345;BME280;47216;42.656;23.232;2023-11-21T05:51:17;93652.66;;;4.72;73.86
61345;BME280;47216;42.656;23.232;2023-11-21T05:53:44;93651.44;;;4.74;74.04
61345;BME280;47216;42.656;23.232;2023-11-21T05:56:11;93642.03;;;4.80;74.17
61345;BME280;47216;42.656;23.232;2023-11-21T05:58:39;93648.19;;;4.79;73.27
61345;BME280;47216;42.656;23.232;2023-11-21T06:01:06;93645.63;;;4.79;73.81
61345;BME280;47216;42.656;23.232;2023-11-21T06:03:34;93644.59;;;4.80;73.70
61345;BME280;47216;42.656;23.232;2023-11-21T06:06:01;93645.75;;;4.84;73.38
61345;BME280;47216;42.656;23.232;2023-11-21T06:08:31;93648.25;;;4.91;73.68
61345;BME280;47216;42.656;23.232;2023-11-21T06:10:58;93656.22;;;4.89;73.68
61345;BME280;47216;42.656;23.232;2023-11-21T06:13:24;93661.75;;;4.93;74.14
61345;BME280;47216;42.656;23.232;2023-11-21T06:15:51;93661.81;;;5.04;74.09
61345;BME280;47216;42.656;23.232;2023-11-21T06:18:18;93662.97;;;5.09;73.93
61345;BME280;47216;42.656;23.232;2023-11-21T06:20:45;93663.22;;;5.19;73.19
61345;BME280;47216;42.656;23.232;2023-11-21T06:23:12;93661.13;;;5.28;73.17
61345;BME280;47216;42.656;23.232;2023-11-21T06:25:40;93663.47;;;5.29;73.07
61345;BME280;47216;42.656;23.232;2023-11-21T06:28:07;93671.59;;;5.33;73.48
61345;BME280;47216;42.656;23.232;2023-11-21T06:30:34;93665.75;;;5.37;73.18
61345;BME280;47216;42.656;23.232;2023-11-21T06:33:01;93666.13;;;5.41;73.43
61345;BME280;47216;42.656;23.232;2023-11-21T06:35:27;93673.66;;;5.42;73.19
61345;BME280;47216;42.656;23.232;2023-11-21T06:37:55;93678.81;;;5.42;72.95
61345;BME280;47216;42.656;23.232;2023-11-21T06:40:22;93680.41;;;5.43;73.05
61345;BME280;47216;42.656;23.232;2023-11-21T06:42:51;93673.94;;;5.53;72.95
61345;BME280;47216;42.656;23.232;2023-11-21T06:45:19;93685.38;;;5.57;72.56
61345;BME280;47216;42.656;23.232;2023-11-21T06:47:46;93684.06;;;5.66;72.35
61345;BME280;47216;42.656;23.232;2023-11-21T06:50:14;93682.31;;;5.78;72.57
61345;BME280;47216;42.656;23.232;2023-11-21T06:52:41;93678.72;;;5.91;71.94
61345;BME280;47216;42.656;23.232;2023-11-21T06:55:08;93684.47;;;5.93;71.85
61345;BME280;47216;42.656;23.232;2023-11-21T06:57:37;93682.84;;;5.99;71.64
61345;BME280;47216;42.656;23.232;2023-11-21T07:00:07;93688.03;;;5.99;71.29
61345;BME280;47216;42.656;23.232;2023-11-21T07:02:34;93689.59;;;6.00;71.38
61345;BME280;47216;42.656;23.232;2023-11-21T07:05:01;93684.75;;;6.03;71.43
61345;BME280;47216;42.656;23.232;2023-11-21T07:07:28;93680.84;;;6.13;71.24
61345;BME280;47216;42.656;23.232;2023-11-21T07:09:55;93684.88;;;6.20;71.13
61345;BME280;47216;42.656;23.232;2023-11-21T07:12:22;93676.81;;;6.28;71.16
61345;BME280;47216;42.656;23.232;2023-11-21T07:14:51;93666.78;;;6.32;70.98
61345;BME280;47216;42.656;23.232;2023-11-21T07:17:20;93664.63;;;6.29;70.64
61345;BME280;47216;42.656;23.232;2023-11-21T07:19:48;93667.13;;;6.36;70.73
61345;BME280;47216;42.656;23.232;2023-11-21T07:22:15;93672.28;;;6.36;70.60
61345;BME280;47216;42.656;23.232;2023-11-21T07:24:48;93675.31;;;6.44;70.67
61345;BME280;47216;42.656;23.232;2023-11-21T07:27:15;93669.59;;;6.54;71.08
61345;BME280;47216;42.656;23.232;2023-11-21T07:29:41;93682.19;;;6.62;70.49
61345;BME280;47216;42.656;23.232;2023-11-21T07:32:08;93666.06;;;6.72;70.19
61345;BME280;47216;42.656;23.232;2023-11-21T07:34:37;93671.59;;;6.76;70.59
61345;BME280;47216;42.656;23.232;2023-11-21T07:37:04;93676.66;;;6.82;70.11
61345;BME280;47216;42.656;23.232;2023-11-21T07:39:30;93681.38;;;6.85;69.72
61345;BME280;47216;42.656;23.232;2023-11-21T07:41:57;93680.72;;;6.78;69.55
61345;BME280;47216;42.656;23.232;2023-11-21T07:44:24;93670.13;;;6.80;69.50
61345;BME280;47216;42.656;23.232;2023-11-21T07:46:51;93670.22;;;6.85;69.20
61345;BME280;47216;42.656;23.232;2023-11-21T07:49:22;93670.00;;;6.86;69.08
61345;BME280;47216;42.656;23.232;2023-11-21T07:51:51;93664.44;;;6.94;69.31
61345;BME280;47216;42.656;23.232;2023-11-21T07:54:18;93664.09;;;7.03;68.73
61345;BME280;47216;42.656;23.232;2023-11-21T07:56:44;93655.41;;;7.09;69.14
61345;BME280;47216;42.656;23.232;2023-11-21T07:59:11;93653.69;;;7.14;68.90
61345;BME280;47216;42.656;23.232;2023-11-21T08:01:39;93659.75;;;7.20;69.06
61345;BME280;47216;42.656;23.232;2023-11-21T08:04:08;93660.97;;;7.29;68.07
61345;BME280;47216;42.656;23.232;2023-11-21T08:06:35;93656.25;;;7.26;68.18
61345;BME280;47216;42.656;23.232;2023-11-21T08:09:03;93662.88;;;7.34;67.68
61345;BME280;47216;42.656;23.232;2023-11-21T08:11:30;93646.53;;;7.33;68.67
61345;BME280;47216;42.656;23.232;2023-11-21T08:13:58;93648.91;;;7.35;68.53
61345;BME280;47216;42.656;23.232;2023-11-21T08:16:25;93653.13;;;7.41;67.90
61345;BME280;47216;42.656;23.232;2023-11-21T08:18:52;93655.81;;;7.46;68.12
61345;BME280;47216;42.656;23.232;2023-11-21T08:21:19;93648.00;;;7.58;69.69
61345;BME280;47216;42.656;23.232;2023-11-21T08:23:46;93649.97;;;7.68;69.96
61345;BME280;47216;42.656;23.232;2023-11-21T08:26:20;93648.31;;;7.78;69.39
61345;BME280;47216;42.656;23.232;2023-11-21T08:28:47;93651.97;;;7.94;68.66
61345;BME280;47216;42.656;23.232;2023-11-21T08:31:14;93655.09;;;7.96;67.42
61345;BME280;47216;42.656;23.232;2023-11-21T08:33:41;93650.69;;;7.97;67.51
61345;BME280;47216;42.656;23.232;2023-11-21T08:36:08;93646.31;;;7.97;67.69
61345;BME280;47216;42.656;23.232;2023-11-21T08:38:36;93643.16;;;7.95;66.81
61345;BME280;47216;42.656;23.232;2023-11-21T08:41:05;93646.94;;;8.05;66.66
61345;BME280;47216;42.656;23.232;2023-11-21T08:43:34;93648.13;;;8.14;66.48
61345;BME280;47216;42.656;23.232;2023-11-21T08:46:01;93647.97;;;8.20;67.50
61345;BME280;47216;42.656;23.232;2023-11-21T08:48:28;93652.91;;;8.22;66.74
61345;BME280;47216;42.656;23.232;2023-11-21T08:50:55;93645.50;;;8.31;67.43
61345;BME280;47216;42.656;23.232;2023-11-21T08:53:22;93641.66;;;8.33;66.28
61345;BME280;47216;42.656;23.232;2023-11-21T08:55:49;93638.59;;;8.36;66.38
61345;BME280;47216;42.656;23.232;2023-11-21T08:58:19;93627.81;;;8.45;67.23
61345;BME280;47216;42.656;23.232;2023-11-21T09:00:48;93617.47;;;8.50;66.74
61345;BME280;47216;42.656;23.232;2023-11-21T09:03:15;93606.63;;;8.53;66.60
61345;BME280;47216;42.656;23.232;2023-11-21T09:05:41;93604.53;;;8.55;65.62
61345;BME280;47216;42.656;23.232;2023-11-21T09:08:10;93600.22;;;8.60;65.57
61345;BME280;47216;42.656;23.232;2023-11-21T09:10:37;93598.38;;;8.61;65.00
61345;BME280;47216;42.656;23.232;2023-11-21T09:13:05;93598.72;;;8.65;65.44
61345;BME280;47216;42.656;23.232;2023-11-21T09:15:35;93585.44;;;8.66;65.19
61345;BME280;47216;42.656;23.232;2023-11-21T09:18:04;93585.78;;;8.70;65.01
61345;BME280;47216;42.656;23.232;2023-11-21T09:20:31;93573.88;;;8.74;64.68
61345;BME280;47216;42.656;23.232;2023-11-21T09:22:57;93565.56;;;8.77;64.96
61345;BME280;47216;42.656;23.232;2023-11-21T09:25:24;93566.91;;;8.79;63.86
61345;BME280;47216;42.656;23.232;2023-11-21T09:27:51;93549.31;;;8.87;64.45
61345;BME280;47216;42.656;23.232;2023-11-21T09:30:18;93541.31;;;8.93;64.61
61345;BME280;47216;42.656;23.232;2023-11-21T09:32:45;93537.19;;;8.97;64.12
61345;BME280;47216;42.656;23.232;2023-11-21T09:35:14;93528.13;;;9.00;64.68
61345;BME280;47216;42.656;23.232;2023-11-21T09:37:41;93526.84;;;9.02;63.70
61345;BME280;47216;42.656;23.232;2023-11-21T09:40:10;93526.56;;;8.99;64.68
61345;BME280;47216;42.656;23.232;2023-11-21T09:42:40;93528.03;;;8.90;64.31
61345;BME280;47216;42.656;23.232;2023-11-21T09:45:17;93515.28;;;8.88;64.34
61345;BME280;47216;42.656;23.232;2023-11-21T09:47:45;93513.56;;;8.99;63.67
61345;BME280;47216;42.656;23.232;2023-11-21T09:50:17;93512.44;;;8.90;63.71
61345;BME280;47216;42.656;23.232;2023-11-21T09:55:34;93500.09;;;9.07;63.88
61345;BME280;47216;42.656;23.232;2023-11-21T09:58:02;93492.88;;;9.14;63.29
61345;BME280;47216;42.656;23.232;2023-11-21T10:00:30;93492.59;;;9.11;64.45
61345;BME280;47216;42.656;23.232;2023-11-21T10:02:58;93484.84;;;9.16;63.44
61345;BME280;47216;42.656;23.232;2023-11-21T10:05:26;93472.19;;;9.24;63.03
61345;BME280;47216;42.656;23.232;2023-11-21T10:07:55;93480.53;;;9.27;63.64
61345;BME280;47216;42.656;23.232;2023-11-21T10:10:24;93474.59;;;9.36;62.84
61345;BME280;47216;42.656;23.232;2023-11-21T10:12:55;93460.84;;;9.41;62.81
61345;BME280;47216;42.656;23.232;2023-11-21T10:15:23;93476.00;;;9.49;62.83
61345;BME280;47216;42.656;23.232;2023-11-21T10:17:52;93462.56;;;9.62;63.08
61345;BME280;47216;42.656;23.232;2023-11-21T10:20:19;93450.84;;;9.65;62.39
61345;BME280;47216;42.656;23.232;2023-11-21T10:22:48;93456.34;;;9.68;62.19
61345;BME280;47216;42.656;23.232;2023-11-21T10:25:15;93454.56;;;9.74;62.41
61345;BME280;47216;42.656;23.232;2023-11-21T10:27:47;93450.63;;;9.72;62.37
61345;BME280;47216;42.656;23.232;2023-11-21T10:30:15;93453.81;;;9.79;62.25
61345;BME280;47216;42.656;23.232;2023-11-21T10:32:43;93452.81;;;9.85;61.45
61345;BME280;47216;42.656;23.232;2023-11-21T10:35:10;93456.47;;;9.89;61.70
61345;BME280;47216;42.656;23.232;2023-11-21T10:37:38;93457.78;;;9.92;61.13
61345;BME280;47216;42.656;23.232;2023-11-21T10:40:08;93442.50;;;10.05;60.84
61345;BME280;47216;42.656;23.232;2023-11-21T10:42:37;93449.78;;;10.03;59.79
61345;BME280;47216;42.656;23.232;2023-11-21T10:45:04;93455.25;;;10.07;59.74
61345;BME280;47216;42.656;23.232;2023-11-21T10:47:38;93442.00;;;10.14;60.04
61345;BME280;47216;42.656;23.232;2023-11-21T10:50:05;93443.03;;;10.07;60.57
61345;BME280;47216;42.656;23.232;2023-11-21T10:52:36;93441.72;;;10.10;59.91
61345;BME280;47216;42.656;23.232;2023-11-21T10:55:16;93433.66;;;10.12;59.89
61345;BME280;47216;42.656;23.232;2023-11-21T10:57:43;93435.22;;;10.13;59.37
61345;BME280;47216;42.656;23.232;2023-11-21T11:00:19;93435.22;;;10.13;59.22
61345;BME280;47216;42.656;23.232;2023-11-21T11:02:59;93430.25;;;10.11;59.91
61345;BME280;47216;42.656;23.232;2023-11-21T11:05:48;93426.34;;;10.14;60.30
61345;BME280;47216;42.656;23.232;2023-11-21T11:08:29;93423.28;;;10.22;59.31
61345;BME280;47216;42.656;23.232;2023-11-21T11:11:07;93401.38;;;10.18;59.72
61345;BME280;47216;42.656;23.232;2023-11-21T11:13:35;93400.31;;;10.14;59.71
61345;BME280;47216;42.656;23.232;2023-11-21T11:16:05;93406.03;;;10.10;59.85
61345;BME280;47216;42.656;23.232;2023-11-21T11:18:42;93393.53;;;10.13;59.86
61345;BME280;47216;42.656;23.232;2023-11-21T11:21:26;93390.94;;;10.18;59.92
61345;BME280;47216;42.656;23.232;2023-11-21T11:24:16;93387.81;;;10.16;60.01
61345;BME280;47216;42.656;23.232;2023-11-21T11:27:01;93382.63;;;10.21;60.33
61345;BME280;47216;42.656;23.232;2023-11-21T11:29:43;93379.00;;;10.27;60.39
61345;BME280;47216;42.656;23.232;2023-11-21T11:32:21;93380.34;;;10.35;60.66
61345;BME280;47216;42.656;23.232;2023-11-21T11:35:07;93382.19;;;10.39;61.04
61345;BME280;47216;42.656;23.232;2023-11-21T11:37:37;93382.19;;;10.39;60.69
61345;BME280;47216;42.656;23.232;2023-11-21T11:40:06;93393.41;;;10.40;60.49
61345;BME280;47216;42.656;23.232;2023-11-21T11:42:35;93403.84;;;10.40;60.57
61345;BME280;47216;42.656;23.232;2023-11-21T11:45:17;93392.09;;;10.42;60.80
61345;BME280;47216;42.656;23.232;2023-11-21T11:47:47;93386.66;;;10.49;60.72
61345;BME280;47216;42.656;23.232;2023-11-21T11:50:14;93381.94;;;10.46;60.96
61345;BME280;47216;42.656;23.232;2023-11-21T11:52:43;93384.28;;;10.47;61.34
61345;BME280;47216;42.656;23.232;2023-11-21T11:55:11;93379.31;;;10.46;61.50
61345;BME280;47216;42.656;23.232;2023-11-21T11:57:41;93382.75;;;10.51;61.50
61345;BME280;47216;42.656;23.232;2023-11-21T12:00:16;93381.69;;;10.52;61.66
61345;BME280;47216;42.656;23.232;2023-11-21T12:02:46;93395.50;;;10.48;62.33
61345;BME280;47216;42.656;23.232;2023-11-21T12:05:14;93391.59;;;10.45;65.13
61345;BME280;47216;42.656;23.232;2023-11-21T12:07:45;93390.03;;;10.44;66.08
61345;BME280;47216;42.656;23.232;2023-11-21T12:10:14;93397.31;;;10.42;66.45
61345;BME280;47216;42.656;23.232;2023-11-21T12:12:45;93405.38;;;10.36;66.93
61345;BME280;47216;42.656;23.232;2023-11-21T12:15:12;93406.16;;;10.36;68.05
61345;BME280;47216;42.656;23.232;2023-11-21T12:17:40;93396.50;;;10.32;68.54
61345;BME280;47216;42.656;23.232;2023-11-21T12:20:08;93385.75;;;10.28;69.21
61345;BME280;47216;42.656;23.232;2023-11-21T12:22:42;93378.00;;;10.33;68.69
61345;BME280;47216;42.656;23.232;2023-11-21T12:25:09;93375.13;;;10.35;69.17
61345;BME280;47216;42.656;23.232;2023-11-21T12:27:46;93391.81;;;10.34;69.38
61345;BME280;47216;42.656;23.232;2023-11-21T12:30:16;93389.47;;;10.37;68.82
61345;BME280;47216;42.656;23.232;2023-11-21T12:32:44;93387.38;;;10.39;68.69
61345;BME280;47216;42.656;23.232;2023-11-21T12:35:12;93390.28;;;10.38;69.67
61345;BME280;47216;42.656;23.232;2023-11-21T12:37:40;93375.13;;;10.35;69.86
61345;BME280;47216;42.656;23.232;2023-11-21T12:40:09;93374.34;;;10.34;69.61
61345;BME280;47216;42.656;23.232;2023-11-21T12:42:37;93368.13;;;10.35;69.61
61345;BME280;47216;42.656;23.232;2023-11-21T12:45:18;93359.50;;;10.35;70.03
61345;BME280;47216;42.656;23.232;2023-11-21T12:47:47;93368.63;;;10.37;69.78
61345;BME280;47216;42.656;23.232;2023-11-21T12:50:14;93354.81;;;10.37;68.84
61345;BME280;47216;42.656;23.232;2023-11-21T12:52:45;93356.63;;;10.36;68.46
61345;BME280;47216;42.656;23.232;2023-11-21T12:55:15;93356.13;;;10.39;68.20
61345;BME280;47216;42.656;23.232;2023-11-21T12:57:43;93350.91;;;10.39;67.74
61345;BME280;47216;42.656;23.232;2023-11-21T13:00:13;93343.59;;;10.41;67.48
61345;BME280;47216;42.656;23.232;2023-11-21T13:02:53;93343.13;;;10.44;67.31
61345;BME280;47216;42.656;23.232;2023-11-21T13:05:27;93341.00;;;10.36;66.72
61345;BME280;47216;42.656;23.232;2023-11-21T13:07:55;93344.63;;;10.30;67.15